createdAt,value
2018-08-06T00:01:05.043Z,29.80
2018-08-06T00:03:32.280Z,30.20
2018-08-06T00:05:59.442Z,30.00
2018-08-06T00:08:26.768Z,30.00
2018-08-06T00:10:53.857Z,30.30
2018-08-06T00:13:21.029Z,30.10
2018-08-06T00:15:48.072Z,30.20
2018-08-06T00:18:15.361Z,30.10
2018-08-06T00:20:42.576Z,30.40
2018-08-06T00:23:09.792Z,30.40
2018-08-06T00:25:36.815Z,30.20
2018-08-06T00:28:04.007Z,30.50
2018-08-06T00:30:31.171Z,30.70
2018-08-06T00:32:58.417Z,30.90
2018-08-06T00:35:25.634Z,30.30
2018-08-06T00:37:52.778Z,30.60
2018-08-06T00:40:20.729Z,30.60
2018-08-06T00:42:48.251Z,30.90
2018-08-06T00:45:16.675Z,30.80
2018-08-06T00:47:44.223Z,30.80
2018-08-06T00:50:11.637Z,31.00
2018-08-06T00:52:38.785Z,31.10
2018-08-06T00:55:07.622Z,31.00
2018-08-06T00:57:34.729Z,30.90
2018-08-06T01:00:02.153Z,31.20
2018-08-06T01:02:29.375Z,31.20
2018-08-06T01:04:56.539Z,31.40
2018-08-06T01:07:23.762Z,31.70
2018-08-06T01:09:51.411Z,31.70
2018-08-06T01:12:18.587Z,32.00
2018-08-06T01:14:45.786Z,32.00
2018-08-06T01:17:12.842Z,31.70
2018-08-06T01:19:39.908Z,31.80
2018-08-06T01:22:07.157Z,32.00
2018-08-06T01:24:34.485Z,31.90
2018-08-06T01:27:01.511Z,31.70
2018-08-06T01:29:28.819Z,31.90
2018-08-06T01:31:55.919Z,31.90
2018-08-06T01:34:23.078Z,31.80
2018-08-06T01:36:50.146Z,31.80
2018-08-06T01:39:17.186Z,31.80
2018-08-06T01:41:44.516Z,31.80
2018-08-06T01:44:11.595Z,31.80
2018-08-06T01:46:39.172Z,32.30
2018-08-06T01:49:06.378Z,32.50
2018-08-06T01:51:33.470Z,32.20
2018-08-06T01:54:00.574Z,32.20
2018-08-06T01:56:27.758Z,32.70
2018-08-06T01:58:55.134Z,32.20
2018-08-06T02:01:22.273Z,33.20
2018-08-06T02:03:49.336Z,32.80
2018-08-06T02:06:16.569Z,32.80
2018-08-06T02:08:43.614Z,33.00
2018-08-06T02:11:10.711Z,33.40
2018-08-06T02:13:37.821Z,33.10
2018-08-06T02:16:04.898Z,33.70
2018-08-06T02:18:32.157Z,33.40
2018-08-06T02:20:59.277Z,33.80
2018-08-06T02:23:26.329Z,33.60
2018-08-06T02:25:53.527Z,33.60
2018-08-06T02:28:20.642Z,34.00
2018-08-06T02:30:47.759Z,34.60
2018-08-06T02:33:14.830Z,33.80
2018-08-06T02:35:41.990Z,34.10
2018-08-06T02:38:10.491Z,34.20
2018-08-06T02:40:37.696Z,34.00
2018-08-06T02:43:04.791Z,34.20
2018-08-06T02:45:31.915Z,34.40
2018-08-06T02:47:59.355Z,34.60
2018-08-06T02:50:26.618Z,34.30
2018-08-06T02:52:54.178Z,34.50
2018-08-06T02:55:21.516Z,34.80
2018-08-06T02:57:48.834Z,35.10
2018-08-06T03:00:16.636Z,34.80
2018-08-06T03:02:44.664Z,34.80
2018-08-06T03:05:13.007Z,34.90
2018-08-06T03:07:40.682Z,35.10
2018-08-06T03:10:07.793Z,35.20
2018-08-06T03:12:35.678Z,35.00
2018-08-06T03:15:03.295Z,35.20
2018-08-06T03:17:30.755Z,35.10
2018-08-06T03:19:57.978Z,35.30
2018-08-06T03:22:25.218Z,35.40
2018-08-06T03:24:52.502Z,35.80
2018-08-06T03:27:19.558Z,35.70
2018-08-06T03:29:46.761Z,35.70
2018-08-06T03:32:13.767Z,35.50
2018-08-06T03:34:40.854Z,36.00
2018-08-06T03:37:08.297Z,35.60
2018-08-06T03:39:35.407Z,35.80
2018-08-06T03:42:02.498Z,36.10
2018-08-06T03:44:29.744Z,35.90
2018-08-06T03:46:56.858Z,36.10
2018-08-06T03:49:24.008Z,37.00
2018-08-06T03:51:51.117Z,36.20
2018-08-06T03:54:18.251Z,36.60
2018-08-06T03:56:46.302Z,36.70
2018-08-06T03:59:13.454Z,36.40
2018-08-06T04:01:40.691Z,36.70
2018-08-06T04:04:07.854Z,36.50
2018-08-06T04:06:34.989Z,37.00
2018-08-06T04:09:03.217Z,37.30
2018-08-06T04:11:30.413Z,36.80
2018-08-06T04:13:57.514Z,37.20
2018-08-06T04:16:33.459Z,37.20
2018-08-06T04:19:01.546Z,37.30
2018-08-06T04:21:29.623Z,37.40
2018-08-06T04:23:57.758Z,37.40
2018-08-06T04:26:24.785Z,37.30
2018-08-06T04:28:51.996Z,37.40
2018-08-06T04:31:21.026Z,37.20
2018-08-06T04:33:48.299Z,37.50
2018-08-06T04:36:15.312Z,37.30
2018-08-06T04:38:42.352Z,37.20
2018-08-06T04:41:11.579Z,37.60
2018-08-06T04:43:38.600Z,37.00
2018-08-06T04:46:05.776Z,38.30
2018-08-06T04:48:34.158Z,37.40
2018-08-06T04:51:01.301Z,37.20
2018-08-06T04:53:28.334Z,37.20
2018-08-06T04:55:57.446Z,37.00
2018-08-06T04:58:24.577Z,37.30
2018-08-06T05:00:51.806Z,37.10
2018-08-06T05:03:18.945Z,37.00
2018-08-06T05:05:46.003Z,36.80
2018-08-06T05:08:15.054Z,36.90
2018-08-06T05:10:42.146Z,36.30
2018-08-06T05:13:09.301Z,36.20
2018-08-06T05:15:36.370Z,36.30
2018-08-06T05:18:03.477Z,36.00
2018-08-06T05:20:30.620Z,36.90
2018-08-06T05:22:58.017Z,35.80
2018-08-06T05:25:25.105Z,36.00
2018-08-06T05:27:52.274Z,35.70
2018-08-06T05:30:21.690Z,35.20
2018-08-06T05:32:48.846Z,35.10
2018-08-06T05:35:16.015Z,35.20
2018-08-06T05:37:43.080Z,35.10
2018-08-06T05:40:10.138Z,35.30
2018-08-06T05:42:37.404Z,34.40
2018-08-06T05:45:05.397Z,34.90
2018-08-06T05:47:32.444Z,34.40
2018-08-06T05:49:59.601Z,34.70
2018-08-06T05:52:27.207Z,34.60
2018-08-06T05:54:55.217Z,33.60
2018-08-06T05:57:22.652Z,33.80
2018-08-06T05:59:49.940Z,33.50
2018-08-06T06:02:17.143Z,33.30
2018-08-06T06:04:44.642Z,33.40
2018-08-06T06:07:11.752Z,32.60
2018-08-06T06:09:38.820Z,33.00
2018-08-06T06:12:07.999Z,32.60
2018-08-06T06:14:35.172Z,32.60
2018-08-06T06:17:03.426Z,32.70
2018-08-06T06:19:30.497Z,32.80
2018-08-06T06:21:58.564Z,31.30
2018-08-06T06:24:28.453Z,31.80
2018-08-06T06:26:56.001Z,30.90
2018-08-06T06:29:23.117Z,30.80
2018-08-06T06:31:50.349Z,30.70
2018-08-06T06:34:17.485Z,30.50
2018-08-06T06:36:44.917Z,30.20
2018-08-06T06:39:13.051Z,30.20
2018-08-06T06:41:40.468Z,30.20
2018-08-06T06:44:08.220Z,30.00
2018-08-06T06:46:35.314Z,30.80
2018-08-06T06:49:02.679Z,29.70
2018-08-06T06:51:29.889Z,30.00
2018-08-06T06:53:57.098Z,29.90
2018-08-06T06:56:24.248Z,29.70
2018-08-06T06:58:51.604Z,29.40
2018-08-06T07:01:18.747Z,29.30
2018-08-06T07:03:45.815Z,29.40
2018-08-06T07:06:13.603Z,29.30
2018-08-06T07:08:40.678Z,29.40
2018-08-06T07:11:08.075Z,29.00
2018-08-06T07:13:35.305Z,29.00
2018-08-06T07:16:02.633Z,28.90
2018-08-06T07:18:29.753Z,29.10
2018-08-06T07:20:57.640Z,29.20
2018-08-06T07:23:24.737Z,29.00
2018-08-06T07:25:52.034Z,28.80
2018-08-06T07:28:20.175Z,28.70
2018-08-06T07:30:47.302Z,28.60
2018-08-06T07:33:14.482Z,29.10
2018-08-06T07:35:41.651Z,28.60
2018-08-06T07:38:09.071Z,28.60
2018-08-06T07:40:36.186Z,28.50
2018-08-06T07:43:03.266Z,28.20
2018-08-06T07:45:30.319Z,28.10
2018-08-06T07:47:58.062Z,28.40
2018-08-06T07:50:25.656Z,28.00
2018-08-06T07:53:08.582Z,28.00
2018-08-06T07:55:36.256Z,28.00
2018-08-06T07:58:04.464Z,28.00
2018-08-06T08:00:31.956Z,27.80
2018-08-06T08:03:05.450Z,27.50
2018-08-06T08:05:34.063Z,27.40
2018-08-06T08:08:01.755Z,27.70
2018-08-06T08:10:30.238Z,27.60
2018-08-06T08:12:58.066Z,27.10
2018-08-06T08:15:25.988Z,26.50
2018-08-06T08:17:53.608Z,26.50
2018-08-06T08:20:21.177Z,26.60
2018-08-06T08:22:48.526Z,26.60
2018-08-06T08:25:22.458Z,26.70
2018-08-06T08:27:54.494Z,26.70
2018-08-06T08:30:31.713Z,26.80
2018-08-06T08:32:59.308Z,26.50
2018-08-06T08:35:48.205Z,26.30
2018-08-06T08:38:22.115Z,26.30
2018-08-06T08:40:51.534Z,26.10
2018-08-06T08:43:19.293Z,26.00
2018-08-06T08:45:52.228Z,25.70
2018-08-06T08:48:19.787Z,25.80
2018-08-06T08:50:47.439Z,25.60
2018-08-06T08:55:53.844Z,25.10
2018-08-06T08:58:23.658Z,25.10
2018-08-06T09:03:36.350Z,24.70
2018-08-06T09:06:03.718Z,24.60
2018-08-06T09:08:31.098Z,24.30
2018-08-06T09:10:58.217Z,24.20
2018-08-06T09:13:25.328Z,24.20
2018-08-06T09:15:52.806Z,23.90
2018-08-06T09:18:20.036Z,24.10
2018-08-06T09:20:48.727Z,23.70
2018-08-06T09:23:15.872Z,23.70
2018-08-06T09:25:42.975Z,23.80
2018-08-06T09:28:10.119Z,23.50
2018-08-06T09:30:37.245Z,23.50
2018-08-06T09:33:08.370Z,23.40
2018-08-06T09:35:35.516Z,23.40
2018-08-06T09:38:02.682Z,22.60
2018-08-06T09:40:29.808Z,22.80
2018-08-06T09:42:57.091Z,22.50
2018-08-06T09:45:24.115Z,22.90
2018-08-06T09:47:52.339Z,22.90
2018-08-06T09:50:20.085Z,22.70
2018-08-06T09:52:48.235Z,22.50
2018-08-06T09:55:18.401Z,22.20
2018-08-06T09:57:45.844Z,22.00
2018-08-06T10:00:19.921Z,22.80
2018-08-06T10:02:47.924Z,22.10
2018-08-06T10:05:15.037Z,21.70
2018-08-06T10:07:42.212Z,22.30
2018-08-06T10:10:10.634Z,21.50
2018-08-06T10:12:37.811Z,22.00
2018-08-06T10:15:06.828Z,21.30
2018-08-06T10:17:34.743Z,21.80
2018-08-06T10:20:02.366Z,21.40
2018-08-06T10:22:30.020Z,20.80
2018-08-06T10:24:57.215Z,20.30
2018-08-06T10:27:24.298Z,20.30
2018-08-06T10:29:51.489Z,20.40
2018-08-06T10:32:18.611Z,20.40
2018-08-06T10:34:48.308Z,20.00
2018-08-06T10:37:15.458Z,19.80
2018-08-06T10:39:42.582Z,19.30
2018-08-06T10:42:09.698Z,19.00
2018-08-06T10:44:36.775Z,18.90
2018-08-06T10:47:04.245Z,19.00
2018-08-06T10:49:31.361Z,19.40
2018-08-06T10:52:00.532Z,19.40
2018-08-06T10:54:27.748Z,18.80
2018-08-06T10:56:54.889Z,18.40
2018-08-06T10:59:21.969Z,18.20
2018-08-06T11:01:49.127Z,17.90
2018-08-06T11:04:18.290Z,18.00
2018-08-06T11:06:46.489Z,17.70
2018-08-06T11:09:13.599Z,17.10
2018-08-06T11:11:43.160Z,17.30
2018-08-06T11:14:10.435Z,17.50
2018-08-06T11:16:37.524Z,16.50
2018-08-06T11:19:04.801Z,16.30
2018-08-06T11:21:33.295Z,16.10
2018-08-06T11:24:00.401Z,16.00
2018-08-06T11:26:27.947Z,15.70
2018-08-06T11:28:55.075Z,15.60
2018-08-06T11:31:22.107Z,15.30
2018-08-06T11:33:56.364Z,15.20
2018-08-06T11:36:24.247Z,14.80
2018-08-06T11:38:51.382Z,15.10
2018-08-06T11:41:19.494Z,15.40
2018-08-06T11:43:47.737Z,15.00
2018-08-06T11:46:16.494Z,14.60
2018-08-06T11:48:43.741Z,14.60
2018-08-06T11:51:10.854Z,14.80
2018-08-06T11:53:38.676Z,14.40
2018-08-06T11:56:09.818Z,14.20
2018-08-06T11:58:37.008Z,13.90
2018-08-06T12:01:04.190Z,13.80
2018-08-06T12:03:32.130Z,14.00
2018-08-06T12:06:00.546Z,13.70
2018-08-06T12:08:27.657Z,13.70
2018-08-06T12:10:58.215Z,14.20
2018-08-06T12:13:25.410Z,13.70
2018-08-06T12:15:52.493Z,13.50
2018-08-06T12:18:19.666Z,12.50
2018-08-06T12:20:46.798Z,12.20
2018-08-06T12:23:16.591Z,12.00
2018-08-06T12:25:50.089Z,11.40
2018-08-06T12:28:17.155Z,11.90
2018-08-06T12:30:45.614Z,11.50
2018-08-06T12:33:12.726Z,10.80
2018-08-06T12:35:39.851Z,11.50
2018-08-06T12:38:06.955Z,10.60
2018-08-06T12:40:33.951Z,10.10
2018-08-06T12:43:01.039Z,10.20
2018-08-06T12:45:28.784Z,10.20
2018-08-06T12:47:56.052Z,10.80
2018-08-06T12:50:23.191Z,9.30
2018-08-06T12:52:50.309Z,9.30
2018-08-06T12:55:18.165Z,8.80
2018-08-06T12:57:45.485Z,8.70
2018-08-06T13:00:15.122Z,8.70
2018-08-06T13:02:42.373Z,9.00
2018-08-06T13:05:11.142Z,8.80
2018-08-06T13:07:38.146Z,8.90
2018-08-06T13:10:05.489Z,8.90
2018-08-06T13:12:32.879Z,9.60
2018-08-06T13:15:00.119Z,9.70
2018-08-06T13:17:28.938Z,9.30
2018-08-06T13:20:06.040Z,8.90
2018-08-06T13:22:34.181Z,9.00
2018-08-06T13:25:01.349Z,8.50
2018-08-06T13:27:28.595Z,9.20
2018-08-06T13:29:56.002Z,9.90
2018-08-06T13:32:24.052Z,9.10
2018-08-06T13:34:51.254Z,9.00
2018-08-06T13:37:18.340Z,10.00
2018-08-06T13:39:45.412Z,10.30
2018-08-06T13:42:12.534Z,9.30
2018-08-06T13:44:39.951Z,9.60
2018-08-06T13:47:08.095Z,8.90
2018-08-06T13:49:58.348Z,8.60
2018-08-06T13:52:25.521Z,8.30
2018-08-06T13:54:53.042Z,8.80
2018-08-06T13:57:20.195Z,8.90
2018-08-06T13:59:47.315Z,9.40
2018-08-06T14:02:19.890Z,10.80
2018-08-06T14:04:51.662Z,11.70
2018-08-06T14:07:18.718Z,10.90
2018-08-06T14:09:53.391Z,10.80
2018-08-06T14:12:21.202Z,10.80
2018-08-06T14:14:48.376Z,11.30
2018-08-06T14:17:15.450Z,10.70
2018-08-06T14:19:42.582Z,11.80
2018-08-06T14:22:09.737Z,11.40
2018-08-06T14:24:36.891Z,12.10
2018-08-06T14:27:03.986Z,12.30
2018-08-06T14:29:31.699Z,12.60
2018-08-06T14:31:58.835Z,13.00
2018-08-06T14:34:29.691Z,12.60
2018-08-06T14:36:56.922Z,12.50
2018-08-06T14:39:24.228Z,12.60
2018-08-06T14:41:52.481Z,13.10
2018-08-06T14:44:19.625Z,12.80
2018-08-06T14:46:46.676Z,14.60
2018-08-06T14:49:13.727Z,14.40
2018-08-06T14:51:40.789Z,14.00
2018-08-06T14:54:07.914Z,14.00
2018-08-06T14:56:34.958Z,14.30
2018-08-06T14:59:02.067Z,13.90
2018-08-06T15:01:29.129Z,13.80
2018-08-06T15:03:56.220Z,13.90
2018-08-06T15:06:23.310Z,13.80
2018-08-06T15:08:51.660Z,13.70
2018-08-06T15:11:18.818Z,14.30
2018-08-06T15:13:46.001Z,12.00
2018-08-06T15:16:13.170Z,12.10
2018-08-06T15:18:40.258Z,11.80
2018-08-06T15:21:07.412Z,12.60
2018-08-06T15:23:34.513Z,12.70
2018-08-06T15:26:01.742Z,12.60
2018-08-06T15:28:30.410Z,13.00
2018-08-06T15:31:08.278Z,12.30
2018-08-06T15:33:35.757Z,12.10
2018-08-06T15:36:03.174Z,12.00
2018-08-06T15:38:30.345Z,12.00
2018-08-06T15:40:59.778Z,12.30
2018-08-06T15:43:27.695Z,12.30
2018-08-06T15:45:57.517Z,12.00
2018-08-06T15:48:24.620Z,12.30
2018-08-06T15:50:51.693Z,11.90
2018-08-06T15:53:18.798Z,11.70
2018-08-06T15:55:45.906Z,11.70
2018-08-06T15:58:12.955Z,11.70
2018-08-06T16:00:39.966Z,11.60
2018-08-06T16:03:07.001Z,12.70
2018-08-06T16:05:35.582Z,13.00
2018-08-06T16:08:02.700Z,13.40
2018-08-06T16:10:29.908Z,13.00
2018-08-06T16:12:57.054Z,12.90
2018-08-06T16:15:24.158Z,13.00
2018-08-06T16:17:51.206Z,12.90
2018-08-06T16:20:18.660Z,12.90
2018-08-06T16:22:45.795Z,13.80
2018-08-06T16:25:13.075Z,13.60
2018-08-06T16:27:40.127Z,13.80
2018-08-06T16:30:13.392Z,13.10
2018-08-06T16:32:40.568Z,13.10
2018-08-06T16:35:08.028Z,13.10
2018-08-06T16:37:35.815Z,13.30
2018-08-06T16:40:07.782Z,13.60
2018-08-06T16:42:34.896Z,13.10
2018-08-06T16:45:02.040Z,13.10
2018-08-06T16:47:29.883Z,13.60
2018-08-06T16:50:00.134Z,13.50
2018-08-06T16:52:28.364Z,13.50
2018-08-06T16:54:55.734Z,13.50
2018-08-06T16:57:22.970Z,13.50
2018-08-06T16:59:50.076Z,13.10
2018-08-06T17:02:17.243Z,12.30
2018-08-06T17:04:44.378Z,12.40
2018-08-06T17:07:14.157Z,12.40
2018-08-06T17:09:41.447Z,11.50
2018-08-06T17:12:08.606Z,11.40
2018-08-06T17:14:35.810Z,11.30
2018-08-06T17:17:02.922Z,11.20
2018-08-06T17:19:30.324Z,11.00
2018-08-06T17:21:57.402Z,11.90
2018-08-06T17:24:24.546Z,12.40
2018-08-06T17:26:54.683Z,12.50
2018-08-06T17:29:21.790Z,12.80
2018-08-06T17:31:48.910Z,12.80
2018-08-06T17:34:16.016Z,12.90
2018-08-06T17:36:43.166Z,11.90
2018-08-06T17:39:18.797Z,11.30
2018-08-06T17:41:46.707Z,11.70
2018-08-06T17:44:15.036Z,11.70
2018-08-06T17:46:42.204Z,12.30
2018-08-06T17:49:09.301Z,11.90
2018-08-06T17:51:37.418Z,12.60
2018-08-06T17:54:04.710Z,14.20
2018-08-06T17:56:31.904Z,13.20
2018-08-06T17:58:59.047Z,14.20
2018-08-06T18:01:26.100Z,15.10
2018-08-06T18:03:53.185Z,14.70
2018-08-06T18:06:21.807Z,14.90
2018-08-06T18:08:49.161Z,15.30
2018-08-06T18:11:16.179Z,15.30
2018-08-06T18:13:43.805Z,15.10
2018-08-06T18:16:11.122Z,15.50
2018-08-06T18:18:38.289Z,16.00
2018-08-06T18:21:05.617Z,16.50
2018-08-06T18:23:32.652Z,17.00
2018-08-06T18:26:00.416Z,17.20
2018-08-06T18:28:27.564Z,17.50
2018-08-06T18:30:54.634Z,17.70
2018-08-06T18:33:21.722Z,18.30
2018-08-06T18:35:48.798Z,18.60
2018-08-06T18:38:17.027Z,19.20
2018-08-06T18:40:44.225Z,19.60
2018-08-06T18:43:11.303Z,20.30
2018-08-06T18:45:38.526Z,20.90
2018-08-06T18:48:05.691Z,20.90
2018-08-06T18:50:32.808Z,21.50
2018-08-06T18:52:59.984Z,21.90
2018-08-06T18:55:27.197Z,21.90
2018-08-06T18:57:54.301Z,22.30
2018-08-06T19:00:23.143Z,22.80
2018-08-06T19:02:50.358Z,23.10
2018-08-06T19:05:17.563Z,23.20
2018-08-06T19:07:44.655Z,23.60
2018-08-06T19:10:11.784Z,23.60
2018-08-06T19:12:45.457Z,23.50
2018-08-06T19:15:13.769Z,23.80
2018-08-06T19:17:48.442Z,24.00
2018-08-06T19:20:25.348Z,24.30
2018-08-06T19:22:52.441Z,24.70
2018-08-06T19:25:24.593Z,25.10
2018-08-06T19:27:51.757Z,25.50
2018-08-06T19:30:19.651Z,25.70
2018-08-06T19:32:46.812Z,25.60
2018-08-06T19:35:14.034Z,26.00
2018-08-06T19:37:48.373Z,26.00
2018-08-06T19:40:15.427Z,25.80
2018-08-06T19:42:48.140Z,26.20
2018-08-06T19:45:17.866Z,26.20
2018-08-06T19:47:45.034Z,26.60
2018-08-06T19:50:20.200Z,27.10
2018-08-06T19:52:47.357Z,27.30
2018-08-06T19:55:19.918Z,27.60
2018-08-06T19:57:47.100Z,27.60
2018-08-06T20:00:14.264Z,27.30
2018-08-06T20:02:42.255Z,27.90
2018-08-06T20:05:09.452Z,27.90
2018-08-06T20:07:36.624Z,27.90
2018-08-06T20:10:04.338Z,27.80
2018-08-06T20:12:31.672Z,27.80
2018-08-06T20:14:59.245Z,27.70
2018-08-06T20:17:26.345Z,27.90
2018-08-06T20:22:27.291Z,28.70
2018-08-06T20:24:54.647Z,28.80
2018-08-06T20:27:23.461Z,29.10
2018-08-06T20:29:50.540Z,28.90
2018-08-06T20:32:17.663Z,29.30
2018-08-06T20:34:44.810Z,29.50
2018-08-06T20:37:12.759Z,29.80
2018-08-06T20:39:39.827Z,29.70
2018-08-06T20:42:06.928Z,29.80
2018-08-06T20:44:34.234Z,29.90
2018-08-06T20:47:01.477Z,29.30
2018-08-06T20:49:28.550Z,28.90
2018-08-06T20:51:56.132Z,29.20
2018-08-06T20:54:29.874Z,29.40
2018-08-06T20:56:57.131Z,29.40
2018-08-06T20:59:24.250Z,29.40
2018-08-06T21:01:51.380Z,29.30
2018-08-06T21:04:20.595Z,28.90
2018-08-06T21:06:47.790Z,29.30
2018-08-06T21:09:15.045Z,29.30
2018-08-06T21:11:43.474Z,29.20
2018-08-06T21:14:10.555Z,28.80
2018-08-06T21:16:37.593Z,29.30
2018-08-06T21:19:05.312Z,29.20
2018-08-06T21:21:32.534Z,29.50
2018-08-06T21:23:59.838Z,29.90
2018-08-06T21:26:27.337Z,29.60
2018-08-06T21:28:54.956Z,29.70
2018-08-06T21:31:22.026Z,29.40
2018-08-06T21:33:49.080Z,29.30
2018-08-06T21:36:16.288Z,28.90
2018-08-06T21:38:43.411Z,28.60
2018-08-06T21:41:10.434Z,28.90
2018-08-06T21:43:37.601Z,28.60
2018-08-06T21:46:05.649Z,28.70
2018-08-06T21:48:33.080Z,28.90
2018-08-06T21:51:00.151Z,29.40
2018-08-06T21:53:27.311Z,29.10
2018-08-06T21:55:54.392Z,29.80
2018-08-06T21:58:21.572Z,29.30
2018-08-06T22:00:48.681Z,30.00
2018-08-06T22:03:17.712Z,29.40
2018-08-06T22:05:45.338Z,29.10
2018-08-06T22:08:12.539Z,28.90
2018-08-06T22:10:39.661Z,29.10
2018-08-06T22:13:07.328Z,29.30
2018-08-06T22:15:34.923Z,29.70
2018-08-06T22:18:02.038Z,29.70
2018-08-06T22:20:29.648Z,29.90
2018-08-06T22:22:56.794Z,30.40
2018-08-06T22:25:24.171Z,30.50
2018-08-06T22:27:51.259Z,30.80
2018-08-06T22:30:18.317Z,30.40
2018-08-06T22:32:45.595Z,29.90
2018-08-06T22:35:13.236Z,30.10
2018-08-06T22:37:41.550Z,30.20
2018-08-06T22:40:09.866Z,30.70
2018-08-06T22:42:37.219Z,30.50
2018-08-06T22:45:04.453Z,30.60
2018-08-06T22:47:31.630Z,30.60
2018-08-06T22:49:58.849Z,31.00
2018-08-06T22:52:26.082Z,30.40
2018-08-06T22:54:53.175Z,30.70
2018-08-06T22:57:20.246Z,31.10
2018-08-06T22:59:47.441Z,30.90
2018-08-06T23:02:14.464Z,30.60
2018-08-06T23:04:41.804Z,30.80
2018-08-06T23:07:08.894Z,30.70
2018-08-06T23:09:36.574Z,31.10
2018-08-06T23:12:03.760Z,30.80
2018-08-06T23:14:30.893Z,31.70
2018-08-06T23:16:58.012Z,31.80
2018-08-06T23:19:25.078Z,32.70
2018-08-06T23:21:52.248Z,32.80
2018-08-06T23:24:19.725Z,33.00
2018-08-06T23:26:47.060Z,33.40
2018-08-06T23:29:14.301Z,33.50
2018-08-06T23:31:41.537Z,33.60
2018-08-06T23:34:08.840Z,33.50
2018-08-06T23:36:35.943Z,33.40
2018-08-06T23:39:03.544Z,33.80
2018-08-06T23:41:31.156Z,34.80
2018-08-06T23:43:58.326Z,34.70
2018-08-06T23:46:25.425Z,34.50
2018-08-06T23:48:52.550Z,34.70
2018-08-06T23:51:20.347Z,34.70
2018-08-06T23:53:48.048Z,34.70
2018-08-06T23:56:15.243Z,34.70
2018-08-06T23:58:42.303Z,34.50
